sensor_id;sensor_type;location;lat;lon;timestamp;P1;durP1;ratioP1;P2;durP2;ratioP2
20462;SDS011;10390;53.566;9.980;2023-04-25T00:01:10;7.50;;;6.25;;
20462;SDS011;10390;53.566;9.980;2023-04-25T00:03:38;6.45;;;5.85;;
20462;SDS011;10390;53.566;9.980;2023-04-25T00:06:04;7.55;;;6.50;;
20462;SDS011;10390;53.566;9.980;2023-04-25T00:08:30;7.18;;;6.47;;
20462;SDS011;10390;53.566;9.980;2023-04-25T00:10:56;6.55;;;5.93;;
20462;SDS011;10390;53.566;9.980;2023-04-25T00:13:22;7.10;;;6.40;;
20462;SDS011;10390;53.566;9.980;2023-04-25T00:15:47;6.70;;;5.80;;
20462;SDS011;10390;53.566;9.980;2023-04-25T00:18:13;7.47;;;6.30;;
20462;SDS011;10390;53.566;9.980;2023-04-25T00:20:39;7.70;;;6.78;;
20462;SDS011;10390;53.566;9.980;2023-04-25T00:23:12;7.30;;;6.60;;
20462;SDS011;10390;53.566;9.980;2023-04-25T00:25:43;6.85;;;6.20;;
20462;SDS011;10390;53.566;9.980;2023-04-25T00:28:10;6.93;;;6.30;;
20462;SDS011;10390;53.566;9.980;2023-04-25T00:30:36;6.93;;;6.32;;
20462;SDS011;10390;53.566;9.980;2023-04-25T00:33:01;6.50;;;5.90;;
20462;SDS011;10390;53.566;9.980;2023-04-25T00:35:27;6.93;;;6.22;;
20462;SDS011;10390;53.566;9.980;2023-04-25T00:37:53;6.35;;;5.75;;
20462;SDS011;10390;53.566;9.980;2023-04-25T00:40:20;7.57;;;6.78;;
20462;SDS011;10390;53.566;9.980;2023-04-25T00:42:46;6.65;;;5.95;;
20462;SDS011;10390;53.566;9.980;2023-04-25T00:45:13;7.68;;;6.47;;
20462;SDS011;10390;53.566;9.980;2023-04-25T00:47:40;7.80;;;7.00;;
20462;SDS011;10390;53.566;9.980;2023-04-25T00:50:07;7.13;;;6.43;;
20462;SDS011;10390;53.566;9.980;2023-04-25T00:52:33;8.13;;;7.13;;
20462;SDS011;10390;53.566;9.980;2023-04-25T00:54:59;7.38;;;6.40;;
20462;SDS011;10390;53.566;9.980;2023-04-25T00:57:25;7.30;;;6.60;;
20462;SDS011;10390;53.566;9.980;2023-04-25T00:59:51;7.10;;;6.40;;
20462;SDS011;10390;53.566;9.980;2023-04-25T01:02:18;6.80;;;6.18;;
20462;SDS011;10390;53.566;9.980;2023-04-25T01:04:45;7.38;;;6.55;;
20462;SDS011;10390;53.566;9.980;2023-04-25T01:07:12;7.70;;;6.82;;
20462;SDS011;10390;53.566;9.980;2023-04-25T01:09:38;7.22;;;6.53;;
20462;SDS011;10390;53.566;9.980;2023-04-25T01:12:04;6.70;;;6.10;;
20462;SDS011;10390;53.566;9.980;2023-04-25T01:14:30;8.82;;;6.05;;
20462;SDS011;10390;53.566;9.980;2023-04-25T01:16:55;8.05;;;6.18;;
20462;SDS011;10390;53.566;9.980;2023-04-25T01:19:22;8.65;;;6.53;;
20462;SDS011;10390;53.566;9.980;2023-04-25T01:21:48;7.40;;;6.70;;
20462;SDS011;10390;53.566;9.980;2023-04-25T01:24:14;7.40;;;6.70;;
20462;SDS011;10390;53.566;9.980;2023-04-25T01:26:40;6.47;;;5.78;;
20462;SDS011;10390;53.566;9.980;2023-04-25T01:29:10;7.82;;;6.60;;
20462;SDS011;10390;53.566;9.980;2023-04-25T01:31:36;7.25;;;6.15;;
20462;SDS011;10390;53.566;9.980;2023-04-25T01:34:02;7.35;;;6.07;;
20462;SDS011;10390;53.566;9.980;2023-04-25T01:36:28;7.57;;;6.30;;
20462;SDS011;10390;53.566;9.980;2023-04-25T01:38:54;7.57;;;6.38;;
20462;SDS011;10390;53.566;9.980;2023-04-25T01:41:20;6.55;;;5.95;;
20462;SDS011;10390;53.566;9.980;2023-04-25T01:43:48;9.43;;;6.88;;
20462;SDS011;10390;53.566;9.980;2023-04-25T01:46:13;6.95;;;6.25;;
20462;SDS011;10390;53.566;9.980;2023-04-25T01:48:39;8.52;;;6.57;;
20462;SDS011;10390;53.566;9.980;2023-04-25T01:51:05;8.13;;;6.45;;
20462;SDS011;10390;53.566;9.980;2023-04-25T01:53:31;8.52;;;5.95;;
20462;SDS011;10390;53.566;9.980;2023-04-25T01:55:57;6.65;;;5.90;;
20462;SDS011;10390;53.566;9.980;2023-04-25T01:58:22;6.72;;;5.85;;
20462;SDS011;10390;53.566;9.980;2023-04-25T02:00:48;7.38;;;5.75;;
20462;SDS011;10390;53.566;9.980;2023-04-25T02:03:14;9.00;;;5.50;;
20462;SDS011;10390;53.566;9.980;2023-04-25T02:05:40;6.65;;;6.03;;
20462;SDS011;10390;53.566;9.980;2023-04-25T02:08:06;6.68;;;5.97;;
20462;SDS011;10390;53.566;9.980;2023-04-25T02:10:33;6.35;;;5.75;;
20462;SDS011;10390;53.566;9.980;2023-04-25T02:12:59;7.32;;;6.15;;
20462;SDS011;10390;53.566;9.980;2023-04-25T02:15:25;9.00;;;6.65;;
20462;SDS011;10390;53.566;9.980;2023-04-25T02:17:51;7.55;;;6.10;;
20462;SDS011;10390;53.566;9.980;2023-04-25T02:20:22;6.95;;;6.10;;
20462;SDS011;10390;53.566;9.980;2023-04-25T02:22:49;7.22;;;6.28;;
20462;SDS011;10390;53.566;9.980;2023-04-25T02:25:16;6.95;;;5.88;;
20462;SDS011;10390;53.566;9.980;2023-04-25T02:27:42;8.30;;;6.18;;
20462;SDS011;10390;53.566;9.980;2023-04-25T02:30:08;6.38;;;5.57;;
20462;SDS011;10390;53.566;9.980;2023-04-25T02:32:34;7.55;;;6.43;;
20462;SDS011;10390;53.566;9.980;2023-04-25T02:35:00;7.10;;;5.63;;
20462;SDS011;10390;53.566;9.980;2023-04-25T02:37:30;7.82;;;6.10;;
20462;SDS011;10390;53.566;9.980;2023-04-25T02:39:56;6.47;;;5.88;;
20462;SDS011;10390;53.566;9.980;2023-04-25T02:42:21;8.13;;;6.03;;
20462;SDS011;10390;53.566;9.980;2023-04-25T02:44:47;7.30;;;6.38;;
20462;SDS011;10390;53.566;9.980;2023-04-25T02:47:13;6.90;;;6.20;;
20462;SDS011;10390;53.566;9.980;2023-04-25T02:49:39;9.00;;;6.78;;
20462;SDS011;10390;53.566;9.980;2023-04-25T02:52:04;7.30;;;6.20;;
20462;SDS011;10390;53.566;9.980;2023-04-25T02:54:30;8.10;;;5.80;;
20462;SDS011;10390;53.566;9.980;2023-04-25T02:56:55;7.10;;;6.30;;
20462;SDS011;10390;53.566;9.980;2023-04-25T02:59:21;8.68;;;6.20;;
20462;SDS011;10390;53.566;9.980;2023-04-25T03:01:47;7.95;;;6.30;;
20462;SDS011;10390;53.566;9.980;2023-04-25T03:04:12;8.18;;;6.57;;
20462;SDS011;10390;53.566;9.980;2023-04-25T03:06:38;7.68;;;6.88;;
20462;SDS011;10390;53.566;9.980;2023-04-25T03:09:03;7.43;;;6.50;;
20462;SDS011;10390;53.566;9.980;2023-04-25T03:11:29;6.95;;;6.22;;
20462;SDS011;10390;53.566;9.980;2023-04-25T03:13:55;7.38;;;6.20;;
20462;SDS011;10390;53.566;9.980;2023-04-25T03:16:21;7.00;;;6.30;;
20462;SDS011;10390;53.566;9.980;2023-04-25T03:18:47;7.82;;;6.00;;
20462;SDS011;10390;53.566;9.980;2023-04-25T03:21:12;8.68;;;6.15;;
20462;SDS011;10390;53.566;9.980;2023-04-25T03:23:38;7.68;;;5.70;;
20462;SDS011;10390;53.566;9.980;2023-04-25T03:26:04;6.97;;;5.88;;
20462;SDS011;10390;53.566;9.980;2023-04-25T03:28:29;6.35;;;5.70;;
20462;SDS011;10390;53.566;9.980;2023-04-25T03:30:55;8.63;;;6.32;;
20462;SDS011;10390;53.566;9.980;2023-04-25T03:33:21;7.38;;;6.57;;
20462;SDS011;10390;53.566;9.980;2023-04-25T03:35:47;8.15;;;6.43;;
20462;SDS011;10390;53.566;9.980;2023-04-25T03:38:12;9.00;;;5.85;;
20462;SDS011;10390;53.566;9.980;2023-04-25T03:40:38;6.72;;;6.03;;
20462;SDS011;10390;53.566;9.980;2023-04-25T03:43:03;8.15;;;6.10;;
20462;SDS011;10390;53.566;9.980;2023-04-25T03:45:29;6.57;;;5.53;;
20462;SDS011;10390;53.566;9.980;2023-04-25T03:47:55;7.45;;;5.65;;
20462;SDS011;10390;53.566;9.980;2023-04-25T03:50:20;7.22;;;6.03;;
20462;SDS011;10390;53.566;9.980;2023-04-25T03:52:46;7.55;;;6.25;;
20462;SDS011;10390;53.566;9.980;2023-04-25T03:55:12;6.97;;;5.53;;
20462;SDS011;10390;53.566;9.980;2023-04-25T03:57:37;7.55;;;6.43;;
20462;SDS011;10390;53.566;9.980;2023-04-25T04:00:03;6.90;;;6.13;;
20462;SDS011;10390;53.566;9.980;2023-04-25T04:02:29;6.15;;;5.55;;
20462;SDS011;10390;53.566;9.980;2023-04-25T04:04:55;7.22;;;6.35;;
20462;SDS011;10390;53.566;9.980;2023-04-25T04:07:21;7.55;;;6.13;;
20462;SDS011;10390;53.566;9.980;2023-04-25T04:09:47;6.28;;;5.68;;
20462;SDS011;10390;53.566;9.980;2023-04-25T04:12:12;6.75;;;6.03;;
20462;SDS011;10390;53.566;9.980;2023-04-25T04:14:38;5.90;;;5.30;;
20462;SDS011;10390;53.566;9.980;2023-04-25T04:17:04;6.93;;;5.70;;
20462;SDS011;10390;53.566;9.980;2023-04-25T04:19:30;7.10;;;5.90;;
20462;SDS011;10390;53.566;9.980;2023-04-25T04:21:56;7.22;;;5.82;;
20462;SDS011;10390;53.566;9.980;2023-04-25T04:24:22;6.28;;;5.68;;
20462;SDS011;10390;53.566;9.980;2023-04-25T04:26:48;7.60;;;5.93;;
20462;SDS011;10390;53.566;9.980;2023-04-25T04:29:15;7.65;;;5.85;;
20462;SDS011;10390;53.566;9.980;2023-04-25T04:31:47;6.85;;;5.68;;
20462;SDS011;10390;53.566;9.980;2023-04-25T04:34:17;6.40;;;5.70;;
20462;SDS011;10390;53.566;9.980;2023-04-25T04:36:43;6.63;;;5.90;;
20462;SDS011;10390;53.566;9.980;2023-04-25T04:39:11;6.03;;;5.28;;
20462;SDS011;10390;53.566;9.980;2023-04-25T04:41:37;7.10;;;6.40;;
20462;SDS011;10390;53.566;9.980;2023-04-25T04:44:03;6.93;;;5.90;;
20462;SDS011;10390;53.566;9.980;2023-04-25T04:46:29;6.10;;;5.47;;
20462;SDS011;10390;53.566;9.980;2023-04-25T04:49:02;6.82;;;5.50;;
20462;SDS011;10390;53.566;9.980;2023-04-25T04:51:30;6.68;;;5.80;;
20462;SDS011;10390;53.566;9.980;2023-04-25T04:53:56;6.63;;;5.40;;
20462;SDS011;10390;53.566;9.980;2023-04-25T04:56:26;7.60;;;5.45;;
20462;SDS011;10390;53.566;9.980;2023-04-25T04:58:53;6.20;;;5.40;;
20462;SDS011;10390;53.566;9.980;2023-04-25T05:01:18;7.13;;;6.00;;
20462;SDS011;10390;53.566;9.980;2023-04-25T05:03:44;6.80;;;5.88;;
20462;SDS011;10390;53.566;9.980;2023-04-25T05:06:09;6.53;;;5.75;;
20462;SDS011;10390;53.566;9.980;2023-04-25T05:08:36;6.93;;;5.25;;
20462;SDS011;10390;53.566;9.980;2023-04-25T05:11:01;8.85;;;6.40;;
20462;SDS011;10390;53.566;9.980;2023-04-25T05:13:27;7.13;;;5.80;;
20462;SDS011;10390;53.566;9.980;2023-04-25T05:15:53;6.78;;;5.53;;
20462;SDS011;10390;53.566;9.980;2023-04-25T05:18:18;7.97;;;5.60;;
20462;SDS011;10390;53.566;9.980;2023-04-25T05:20:44;7.95;;;5.78;;
20462;SDS011;10390;53.566;9.980;2023-04-25T05:23:10;8.45;;;6.70;;
20462;SDS011;10390;53.566;9.980;2023-04-25T05:25:35;7.03;;;5.80;;
20462;SDS011;10390;53.566;9.980;2023-04-25T05:28:01;9.30;;;5.85;;
20462;SDS011;10390;53.566;9.980;2023-04-25T05:30:26;6.97;;;6.10;;
20462;SDS011;10390;53.566;9.980;2023-04-25T05:32:52;6.82;;;6.00;;
20462;SDS011;10390;53.566;9.980;2023-04-25T05:35:18;8.20;;;5.38;;
20462;SDS011;10390;53.566;9.980;2023-04-25T05:37:43;7.60;;;5.72;;
20462;SDS011;10390;53.566;9.980;2023-04-25T05:40:09;7.13;;;5.80;;
20462;SDS011;10390;53.566;9.980;2023-04-25T05:42:35;9.15;;;5.22;;
20462;SDS011;10390;53.566;9.980;2023-04-25T05:45:02;6.65;;;5.72;;
20462;SDS011;10390;53.566;9.980;2023-04-25T05:47:28;8.90;;;5.97;;
20462;SDS011;10390;53.566;9.980;2023-04-25T05:49:53;7.90;;;6.00;;
20462;SDS011;10390;53.566;9.980;2023-04-25T05:52:19;9.07;;;6.45;;
20462;SDS011;10390;53.566;9.980;2023-04-25T05:54:45;8.35;;;6.50;;
20462;SDS011;10390;53.566;9.980;2023-04-25T05:57:20;8.15;;;6.82;;
20462;SDS011;10390;53.566;9.980;2023-04-25T05:59:47;7.75;;;6.20;;
20462;SDS011;10390;53.566;9.980;2023-04-25T06:02:12;6.43;;;5.45;;
20462;SDS011;10390;53.566;9.980;2023-04-25T06:04:38;5.93;;;5.30;;
20462;SDS011;10390;53.566;9.980;2023-04-25T06:07:04;8.02;;;5.60;;
20462;SDS011;10390;53.566;9.980;2023-04-25T06:09:29;6.60;;;5.90;;
20462;SDS011;10390;53.566;9.980;2023-04-25T06:11:55;7.47;;;5.95;;
20462;SDS011;10390;53.566;9.980;2023-04-25T06:14:20;6.82;;;6.10;;
20462;SDS011;10390;53.566;9.980;2023-04-25T06:16:46;7.55;;;6.25;;
20462;SDS011;10390;53.566;9.980;2023-04-25T06:19:12;7.18;;;6.10;;
20462;SDS011;10390;53.566;9.980;2023-04-25T06:21:37;6.85;;;5.75;;
20462;SDS011;10390;53.566;9.980;2023-04-25T06:24:03;8.98;;;6.43;;
20462;SDS011;10390;53.566;9.980;2023-04-25T06:26:29;8.98;;;6.20;;
20462;SDS011;10390;53.566;9.980;2023-04-25T06:28:54;7.40;;;6.47;;
20462;SDS011;10390;53.566;9.980;2023-04-25T06:31:20;6.82;;;5.82;;
20462;SDS011;10390;53.566;9.980;2023-04-25T06:33:45;6.97;;;6.13;;
20462;SDS011;10390;53.566;9.980;2023-04-25T06:36:13;7.82;;;6.63;;
20462;SDS011;10390;53.566;9.980;2023-04-25T06:38:38;8.20;;;7.07;;
20462;SDS011;10390;53.566;9.980;2023-04-25T06:41:04;7.63;;;6.43;;
20462;SDS011;10390;53.566;9.980;2023-04-25T06:43:30;7.22;;;6.47;;
20462;SDS011;10390;53.566;9.980;2023-04-25T06:45:58;7.53;;;6.05;;
20462;SDS011;10390;53.566;9.980;2023-04-25T06:48:25;9.48;;;6.60;;
20462;SDS011;10390;53.566;9.980;2023-04-25T06:50:52;7.75;;;7.05;;
20462;SDS011;10390;53.566;9.980;2023-04-25T06:53:17;8.23;;;6.30;;
20462;SDS011;10390;53.566;9.980;2023-04-25T06:55:43;8.68;;;6.53;;
20462;SDS011;10390;53.566;9.980;2023-04-25T06:58:09;7.57;;;6.80;;
20462;SDS011;10390;53.566;9.980;2023-04-25T07:00:35;6.80;;;6.07;;
20462;SDS011;10390;53.566;9.980;2023-04-25T07:03:01;6.40;;;5.70;;
20462;SDS011;10390;53.566;9.980;2023-04-25T07:05:27;7.25;;;6.43;;
20462;SDS011;10390;53.566;9.980;2023-04-25T07:07:52;9.10;;;6.53;;
20462;SDS011;10390;53.566;9.980;2023-04-25T07:10:18;8.57;;;6.07;;
20462;SDS011;10390;53.566;9.980;2023-04-25T07:12:43;9.68;;;6.18;;
20462;SDS011;10390;53.566;9.980;2023-04-25T07:15:09;16.60;;;6.50;;
20462;SDS011;10390;53.566;9.980;2023-04-25T07:17:36;20.42;;;7.22;;
20462;SDS011;10390;53.566;9.980;2023-04-25T07:20:02;9.95;;;6.75;;
20462;SDS011;10390;53.566;9.980;2023-04-25T07:22:28;9.30;;;6.07;;
20462;SDS011;10390;53.566;9.980;2023-04-25T07:24:54;19.27;;;8.15;;
20462;SDS011;10390;53.566;9.980;2023-04-25T07:27:20;11.93;;;7.32;;
20462;SDS011;10390;53.566;9.980;2023-04-25T07:29:46;13.70;;;7.35;;
20462;SDS011;10390;53.566;9.980;2023-04-25T07:32:11;17.13;;;7.38;;
20462;SDS011;10390;53.566;9.980;2023-04-25T07:34:38;11.25;;;6.85;;
20462;SDS011;10390;53.566;9.980;2023-04-25T07:37:04;24.65;;;7.97;;
20462;SDS011;10390;53.566;9.980;2023-04-25T07:39:30;16.98;;;6.82;;
20462;SDS011;10390;53.566;9.980;2023-04-25T07:41:56;22.17;;;7.25;;
20462;SDS011;10390;53.566;9.980;2023-04-25T07:44:23;13.68;;;7.28;;
20462;SDS011;10390;53.566;9.980;2023-04-25T07:46:49;10.82;;;6.57;;
20462;SDS011;10390;53.566;9.980;2023-04-25T07:49:15;10.18;;;6.10;;
20462;SDS011;10390;53.566;9.980;2023-04-25T07:51:40;10.93;;;6.22;;
20462;SDS011;10390;53.566;9.980;2023-04-25T07:54:08;8.00;;;6.03;;
20462;SDS011;10390;53.566;9.980;2023-04-25T07:56:40;8.73;;;6.13;;
20462;SDS011;10390;53.566;9.980;2023-04-25T07:59:06;8.25;;;5.40;;
20462;SDS011;10390;53.566;9.980;2023-04-25T08:01:33;8.27;;;5.70;;
20462;SDS011;10390;53.566;9.980;2023-04-25T08:03:59;7.35;;;5.68;;
20462;SDS011;10390;53.566;9.980;2023-04-25T08:06:25;7.63;;;6.90;;
20462;SDS011;10390;53.566;9.980;2023-04-25T08:08:50;7.47;;;6.78;;
20462;SDS011;10390;53.566;9.980;2023-04-25T08:11:16;8.52;;;7.20;;
20462;SDS011;10390;53.566;9.980;2023-04-25T08:13:42;8.65;;;7.05;;
20462;SDS011;10390;53.566;9.980;2023-04-25T08:16:07;9.68;;;5.65;;
20462;SDS011;10390;53.566;9.980;2023-04-25T08:18:33;7.68;;;5.90;;
20462;SDS011;10390;53.566;9.980;2023-04-25T08:20:58;6.03;;;5.22;;
20462;SDS011;10390;53.566;9.980;2023-04-25T08:23:24;7.28;;;5.65;;
20462;SDS011;10390;53.566;9.980;2023-04-25T08:25:50;7.13;;;6.22;;
20462;SDS011;10390;53.566;9.980;2023-04-25T08:28:16;7.00;;;5.68;;
20462;SDS011;10390;53.566;9.980;2023-04-25T08:30:41;7.15;;;5.68;;
20462;SDS011;10390;53.566;9.980;2023-04-25T08:33:07;7.38;;;6.25;;
20462;SDS011;10390;53.566;9.980;2023-04-25T08:35:33;6.57;;;5.95;;
20462;SDS011;10390;53.566;9.980;2023-04-25T08:37:58;6.20;;;5.60;;
20462;SDS011;10390;53.566;9.980;2023-04-25T08:40:24;7.13;;;5.70;;
20462;SDS011;10390;53.566;9.980;2023-04-25T08:42:55;7.10;;;6.03;;
20462;SDS011;10390;53.566;9.980;2023-04-25T08:45:24;6.63;;;5.60;;
20462;SDS011;10390;53.566;9.980;2023-04-25T08:47:53;7.40;;;6.00;;
20462;SDS011;10390;53.566;9.980;2023-04-25T08:50:22;7.50;;;5.82;;
20462;SDS011;10390;53.566;9.980;2023-04-25T08:52:48;6.78;;;5.90;;
20462;SDS011;10390;53.566;9.980;2023-04-25T08:55:17;6.60;;;5.78;;
20462;SDS011;10390;53.566;9.980;2023-04-25T08:57:43;7.15;;;5.68;;
20462;SDS011;10390;53.566;9.980;2023-04-25T09:00:10;6.25;;;5.32;;
20462;SDS011;10390;53.566;9.980;2023-04-25T09:02:37;7.18;;;5.53;;
20462;SDS011;10390;53.566;9.980;2023-04-25T09:05:04;7.25;;;5.70;;
20462;SDS011;10390;53.566;9.980;2023-04-25T09:07:31;7.57;;;6.10;;
20462;SDS011;10390;53.566;9.980;2023-04-25T09:09:57;6.57;;;5.97;;
20462;SDS011;10390;53.566;9.980;2023-04-25T09:12:26;6.90;;;5.72;;
20462;SDS011;10390;53.566;9.980;2023-04-25T09:15:06;6.57;;;5.78;;
20462;SDS011;10390;53.566;9.980;2023-04-25T09:17:36;6.65;;;5.90;;
20462;SDS011;10390;53.566;9.980;2023-04-25T09:20:14;8.27;;;5.55;;
20462;SDS011;10390;53.566;9.980;2023-04-25T09:22:40;7.32;;;6.03;;
20462;SDS011;10390;53.566;9.980;2023-04-25T09:25:12;7.85;;;6.40;;
20462;SDS011;10390;53.566;9.980;2023-04-25T09:27:51;6.75;;;5.88;;
20462;SDS011;10390;53.566;9.980;2023-04-25T09:30:30;7.40;;;6.07;;
20462;SDS011;10390;53.566;9.980;2023-04-25T09:32:57;6.78;;;6.03;;
20462;SDS011;10390;53.566;9.980;2023-04-25T09:35:30;10.70;;;6.50;;
20462;SDS011;10390;53.566;9.980;2023-04-25T09:38:09;9.00;;;6.97;;
20462;SDS011;10390;53.566;9.980;2023-04-25T09:40:40;8.30;;;6.28;;
20462;SDS011;10390;53.566;9.980;2023-04-25T09:43:10;8.45;;;7.53;;
20462;SDS011;10390;53.566;9.980;2023-04-25T09:45:43;8.45;;;7.20;;
20462;SDS011;10390;53.566;9.980;2023-04-25T09:48:10;7.38;;;6.35;;
20462;SDS011;10390;53.566;9.980;2023-04-25T09:50:37;8.50;;;7.03;;
20462;SDS011;10390;53.566;9.980;2023-04-25T09:53:05;7.55;;;6.70;;
20462;SDS011;10390;53.566;9.980;2023-04-25T09:55:32;8.00;;;7.20;;
20462;SDS011;10390;53.566;9.980;2023-04-25T09:58:00;7.53;;;6.70;;
20462;SDS011;10390;53.566;9.980;2023-04-25T10:00:30;7.82;;;6.53;;
20462;SDS011;10390;53.566;9.980;2023-04-25T10:02:57;7.22;;;6.25;;
20462;SDS011;10390;53.566;9.980;2023-04-25T10:05:25;7.40;;;6.70;;
20462;SDS011;10390;53.566;9.980;2023-04-25T10:07:53;8.57;;;6.30;;
20462;SDS011;10390;53.566;9.980;2023-04-25T10:10:19;7.15;;;5.93;;
20462;SDS011;10390;53.566;9.980;2023-04-25T10:12:50;8.32;;;6.82;;
20462;SDS011;10390;53.566;9.980;2023-04-25T10:15:16;7.25;;;6.55;;
20462;SDS011;10390;53.566;9.980;2023-04-25T10:17:42;7.60;;;6.82;;
20462;SDS011;10390;53.566;9.980;2023-04-25T10:20:09;6.93;;;6.22;;
20462;SDS011;10390;53.566;9.980;2023-04-25T10:22:37;7.18;;;6.45;;
20462;SDS011;10390;53.566;9.980;2023-04-25T10:25:09;7.53;;;5.57;;
20462;SDS011;10390;53.566;9.980;2023-04-25T10:27:36;6.50;;;5.90;;
20462;SDS011;10390;53.566;9.980;2023-04-25T10:30:13;6.78;;;6.00;;
20462;SDS011;10390;53.566;9.980;2023-04-25T10:32:43;6.80;;;6.10;;
20462;SDS011;10390;53.566;9.980;2023-04-25T10:35:17;6.47;;;5.88;;
20462;SDS011;10390;53.566;9.980;2023-04-25T10:40:31;6.68;;;5.18;;
20462;SDS011;10390;53.566;9.980;2023-04-25T10:46:01;7.45;;;6.15;;
20462;SDS011;10390;53.566;9.980;2023-04-25T10:48:28;6.13;;;5.53;;
20462;SDS011;10390;53.566;9.980;2023-04-25T10:51:08;6.32;;;5.55;;
20462;SDS011;10390;53.566;9.980;2023-04-25T10:53:34;6.93;;;6.07;;
20462;SDS011;10390;53.566;9.980;2023-04-25T10:56:00;8.70;;;6.60;;
20462;SDS011;10390;53.566;9.980;2023-04-25T10:58:25;7.32;;;5.95;;
20462;SDS011;10390;53.566;9.980;2023-04-25T11:00:51;6.90;;;6.20;;
20462;SDS011;10390;53.566;9.980;2023-04-25T11:03:17;6.50;;;5.90;;
20462;SDS011;10390;53.566;9.980;2023-04-25T11:05:46;6.95;;;6.10;;
20462;SDS011;10390;53.566;9.980;2023-04-25T11:08:14;6.25;;;5.38;;
20462;SDS011;10390;53.566;9.980;2023-04-25T11:10:52;6.30;;;5.65;;
20462;SDS011;10390;53.566;9.980;2023-04-25T11:13:20;6.80;;;6.10;;
20462;SDS011;10390;53.566;9.980;2023-04-25T11:15:50;6.95;;;6.35;;
20462;SDS011;10390;53.566;9.980;2023-04-25T11:18:16;6.13;;;5.18;;
20462;SDS011;10390;53.566;9.980;2023-04-25T11:20:43;6.80;;;5.80;;
20462;SDS011;10390;53.566;9.980;2023-04-25T11:23:08;6.80;;;6.10;;
20462;SDS011;10390;53.566;9.980;2023-04-25T11:25:34;7.55;;;6.00;;
20462;SDS011;10390;53.566;9.980;2023-04-25T11:28:01;5.97;;;5.30;;
20462;SDS011;10390;53.566;9.980;2023-04-25T11:30:28;7.93;;;5.97;;
20462;SDS011;10390;53.566;9.980;2023-04-25T11:32:55;7.22;;;5.20;;
20462;SDS011;10390;53.566;9.980;2023-04-25T11:35:21;5.72;;;5.22;;
20462;SDS011;10390;53.566;9.980;2023-04-25T11:37:48;7.20;;;5.80;;
20462;SDS011;10390;53.566;9.980;2023-04-25T11:40:15;6.65;;;5.85;;
20462;SDS011;10390;53.566;9.980;2023-04-25T11:42:44;6.95;;;5.75;;
20462;SDS011;10390;53.566;9.980;2023-04-25T11:45:12;6.15;;;5.55;;
20462;SDS011;10390;53.566;9.980;2023-04-25T11:47:39;7.20;;;6.25;;
20462;SDS011;10390;53.566;9.980;2023-04-25T11:50:05;6.20;;;5.60;;
20462;SDS011;10390;53.566;9.980;2023-04-25T11:52:36;7.45;;;5.68;;
20462;SDS011;10390;53.566;9.980;2023-04-25T11:55:03;6.38;;;5.78;;
20462;SDS011;10390;53.566;9.980;2023-04-25T11:57:31;6.25;;;5.50;;
20462;SDS011;10390;53.566;9.980;2023-04-25T12:00:05;7.22;;;6.00;;
20462;SDS011;10390;53.566;9.980;2023-04-25T12:02:35;6.95;;;5.50;;
20462;SDS011;10390;53.566;9.980;2023-04-25T12:05:01;6.72;;;5.72;;
20462;SDS011;10390;53.566;9.980;2023-04-25T12:07:31;6.88;;;5.47;;
20462;SDS011;10390;53.566;9.980;2023-04-25T12:09:56;8.30;;;5.60;;
20462;SDS011;10390;53.566;9.980;2023-04-25T12:12:23;6.90;;;5.18;;
20462;SDS011;10390;53.566;9.980;2023-04-25T12:14:52;7.13;;;5.95;;
20462;SDS011;10390;53.566;9.980;2023-04-25T12:17:20;6.70;;;6.00;;
20462;SDS011;10390;53.566;9.980;2023-04-25T12:19:47;7.68;;;5.15;;
20462;SDS011;10390;53.566;9.980;2023-04-25T12:22:23;5.88;;;4.97;;
20462;SDS011;10390;53.566;9.980;2023-04-25T12:24:49;6.88;;;5.28;;
20462;SDS011;10390;53.566;9.980;2023-04-25T12:27:16;6.60;;;5.93;;
20462;SDS011;10390;53.566;9.980;2023-04-25T12:29:53;6.28;;;5.55;;
20462;SDS011;10390;53.566;9.980;2023-04-25T12:32:19;7.45;;;5.80;;
20462;SDS011;10390;53.566;9.980;2023-04-25T12:34:45;6.32;;;5.50;;
20462;SDS011;10390;53.566;9.980;2023-04-25T12:37:11;6.18;;;5.25;;
20462;SDS011;10390;53.566;9.980;2023-04-25T12:39:36;5.80;;;5.18;;
20462;SDS011;10390;53.566;9.980;2023-04-25T12:42:02;6.47;;;5.50;;
20462;SDS011;10390;53.566;9.980;2023-04-25T12:44:28;6.72;;;5.75;;
20462;SDS011;10390;53.566;9.980;2023-04-25T12:46:54;5.78;;;5.00;;
20462;SDS011;10390;53.566;9.980;2023-04-25T12:49:20;6.88;;;5.30;;
20462;SDS011;10390;53.566;9.980;2023-04-25T12:51:45;6.13;;;5.43;;
20462;SDS011;10390;53.566;9.980;2023-04-25T12:54:11;6.40;;;5.35;;
20462;SDS011;10390;53.566;9.980;2023-04-25T12:56:37;6.30;;;5.70;;
20462;SDS011;10390;53.566;9.980;2023-04-25T12:59:03;6.18;;;4.85;;
20462;SDS011;10390;53.566;9.980;2023-04-25T13:01:29;5.65;;;4.97;;
20462;SDS011;10390;53.566;9.980;2023-04-25T13:03:54;6.00;;;5.40;;
20462;SDS011;10390;53.566;9.980;2023-04-25T13:06:21;6.30;;;5.70;;
20462;SDS011;10390;53.566;9.980;2023-04-25T13:08:47;5.32;;;4.82;;
20462;SDS011;10390;53.566;9.980;2023-04-25T13:11:13;6.13;;;5.15;;
20462;SDS011;10390;53.566;9.980;2023-04-25T13:13:39;6.50;;;5.90;;
20462;SDS011;10390;53.566;9.980;2023-04-25T13:16:06;7.18;;;5.88;;
20462;SDS011;10390;53.566;9.980;2023-04-25T13:18:32;6.05;;;5.32;;
20462;SDS011;10390;53.566;9.980;2023-04-25T13:20:58;6.20;;;5.18;;
20462;SDS011;10390;53.566;9.980;2023-04-25T13:23:25;8.50;;;5.50;;
20462;SDS011;10390;53.566;9.980;2023-04-25T13:25:52;5.78;;;4.72;;
20462;SDS011;10390;53.566;9.980;2023-04-25T13:28:19;6.93;;;5.68;;
20462;SDS011;10390;53.566;9.980;2023-04-25T13:30:44;6.00;;;5.00;;
20462;SDS011;10390;53.566;9.980;2023-04-25T13:33:10;5.93;;;5.13;;
20462;SDS011;10390;53.566;9.980;2023-04-25T13:35:37;6.75;;;5.60;;
20462;SDS011;10390;53.566;9.980;2023-04-25T13:38:03;7.82;;;5.65;;
20462;SDS011;10390;53.566;9.980;2023-04-25T13:40:29;7.93;;;5.65;;
20462;SDS011;10390;53.566;9.980;2023-04-25T13:42:55;6.40;;;5.60;;
20462;SDS011;10390;53.566;9.980;2023-04-25T13:45:21;6.75;;;5.57;;
20462;SDS011;10390;53.566;9.980;2023-04-25T13:47:46;9.98;;;6.30;;
20462;SDS011;10390;53.566;9.980;2023-04-25T13:50:12;7.55;;;5.38;;
20462;SDS011;10390;53.566;9.980;2023-04-25T13:52:39;9.57;;;6.10;;
20462;SDS011;10390;53.566;9.980;2023-04-25T13:55:05;6.63;;;5.53;;
20462;SDS011;10390;53.566;9.980;2023-04-25T13:57:32;12.63;;;6.15;;
20462;SDS011;10390;53.566;9.980;2023-04-25T13:59:58;10.48;;;5.97;;
20462;SDS011;10390;53.566;9.980;2023-04-25T14:02:24;10.85;;;6.32;;
20462;SDS011;10390;53.566;9.980;2023-04-25T14:04:50;8.77;;;6.30;;
20462;SDS011;10390;53.566;9.980;2023-04-25T14:07:16;10.70;;;5.97;;
20462;SDS011;10390;53.566;9.980;2023-04-25T14:09:43;10.95;;;6.13;;
20462;SDS011;10390;53.566;9.980;2023-04-25T14:12:09;11.25;;;6.43;;
20462;SDS011;10390;53.566;9.980;2023-04-25T14:14:36;9.68;;;6.47;;
20462;SDS011;10390;53.566;9.980;2023-04-25T14:17:02;9.98;;;5.55;;
20462;SDS011;10390;53.566;9.980;2023-04-25T14:19:28;10.73;;;6.03;;
20462;SDS011;10390;53.566;9.980;2023-04-25T14:21:54;11.65;;;6.25;;
20462;SDS011;10390;53.566;9.980;2023-04-25T14:24:20;13.88;;;6.13;;
20462;SDS011;10390;53.566;9.980;2023-04-25T14:26:45;12.25;;;6.40;;
20462;SDS011;10390;53.566;9.980;2023-04-25T14:29:11;13.18;;;6.80;;
20462;SDS011;10390;53.566;9.980;2023-04-25T14:31:37;14.10;;;5.65;;
20462;SDS011;10390;53.566;9.980;2023-04-25T14:34:04;11.35;;;6.38;;
20462;SDS011;10390;53.566;9.980;2023-04-25T14:36:30;13.20;;;7.10;;
20462;SDS011;10390;53.566;9.980;2023-04-25T14:38:57;12.05;;;5.82;;
20462;SDS011;10390;53.566;9.980;2023-04-25T14:41:24;11.30;;;5.75;;
20462;SDS011;10390;53.566;9.980;2023-04-25T14:43:50;9.48;;;5.80;;
20462;SDS011;10390;53.566;9.980;2023-04-25T14:46:17;9.95;;;6.15;;
20462;SDS011;10390;53.566;9.980;2023-04-25T14:48:43;12.15;;;6.10;;